Time;durP1;ratioP1;P1;durP2;ratioP2;P2;SDS_P1;SDS_P2;PMS_P1;PMS_P2;Temp;Humidity;BMP_temperature;BMP_pressure;BME280_temperature;BME280_humidity;BME280_pressure;Samples;Min_cycle;Max_cycle;Signal;HPM_P1;HPM_P2
2023/12/28 04:02:38;;;;;;;11.45;2.10;;;10.80;99.90;;;;;;4977979;23;20047;-77
2023/12/28 04:05:04;;;;;;;9.93;2.42;;;10.80;99.90;;;;;;4977620;28;20126;-73
2023/12/28 04:07:30;;;;;;;8.90;2.30;;;10.80;99.90;;;;;;4975721;28;20058;-74
2023/12/28 04:09:56;;;;;;;14.18;2.35;;;10.80;99.90;;;;;;4976426;28;20121;-78
2023/12/28 04:12:22;;;;;;;7.63;2.03;;;10.80;99.90;;;;;;4959863;28;20093;-75
2023/12/28 04:14:47;;;;;;;9.55;2.50;;;10.80;99.90;;;;;;4976053;28;20094;-77
2023/12/28 04:17:13;;;;;;;7.13;2.17;;;10.80;99.90;;;;;;4977306;28;20469;-75
2023/12/28 04:19:38;;;;;;;12.93;2.40;;;10.80;99.90;;;;;;4977634;28;20046;-76
2023/12/28 04:22:04;;;;;;;8.20;2.63;;;10.80;99.90;;;;;;4976005;28;20505;-74
2023/12/28 04:24:30;;;;;;;7.00;1.67;;;10.70;99.90;;;;;;4975926;28;20046;-74
2023/12/28 04:26:56;;;;;;;14.30;2.35;;;10.70;99.90;;;;;;4977319;28;20042;-73
2023/12/28 04:29:21;;;;;;;8.55;2.88;;;10.70;99.90;;;;;;4975558;28;20038;-74
2023/12/28 04:31:47;;;;;;;10.75;2.38;;;10.70;99.90;;;;;;4976907;28;20066;-78
2023/12/28 04:34:12;;;;;;;9.07;2.50;;;10.60;99.90;;;;;;4977173;28;20034;-77
2023/12/28 04:36:45;;;;;;;12.40;2.40;;;10.60;99.90;;;;;;4977122;28;20509;-75
2023/12/28 04:39:11;;;;;;;10.82;2.20;;;10.60;99.90;;;;;;4975899;28;20180;-73
2023/12/28 04:41:37;;;;;;;6.28;2.30;;;10.60;99.90;;;;;;4975342;28;20071;-76
2023/12/28 04:44:03;;;;;;;8.35;2.55;;;10.60;99.90;;;;;;4977297;28;20125;-76
2023/12/28 04:46:29;;;;;;;9.18;2.08;;;10.60;99.90;;;;;;4976489;28;20090;-76
2023/12/28 04:48:54;;;;;;;9.38;2.30;;;10.60;99.90;;;;;;4976662;28;20035;-77
2023/12/28 04:51:20;;;;;;;16.20;2.47;;;10.60;99.90;;;;;;4975272;28;20042;-74
2023/12/28 04:53:45;;;;;;;8.90;2.42;;;10.60;99.90;;;;;;4976544;28;20043;-76
2023/12/28 04:56:11;;;;;;;7.10;1.80;;;10.60;99.90;;;;;;4976716;28;20047;-76
2023/12/28 04:58:37;;;;;;;10.32;2.55;;;10.60;99.90;;;;;;4976625;28;20363;-76
2023/12/28 05:01:02;;;;;;;8.52;2.35;;;10.60;99.90;;;;;;4958803;28;20053;-74
2023/12/28 05:03:28;;;;;;;8.70;2.30;;;10.70;99.90;;;;;;4975116;28;20047;-77
2023/12/28 05:05:54;;;;;;;7.97;1.90;;;10.70;99.90;;;;;;4976266;28;20523;-77
2023/12/28 05:08:19;;;;;;;9.43;2.00;;;10.70;99.90;;;;;;4976874;28;20043;-74
2023/12/28 05:10:45;;;;;;;11.73;3.03;;;10.70;99.90;;;;;;4974985;28;20050;-76
2023/12/28 05:13:11;;;;;;;15.20;2.30;;;10.80;99.90;;;;;;4976412;28;20039;-74
2023/12/28 05:15:36;;;;;;;10.32;2.03;;;10.70;99.90;;;;;;4974856;28;20042;-75
2023/12/28 05:18:02;;;;;;;12.55;2.13;;;10.80;99.90;;;;;;4976401;28;20035;-74
2023/12/28 05:20:28;;;;;;;15.00;2.45;;;10.80;99.90;;;;;;4973945;28;20126;-75
2023/12/28 05:22:53;;;;;;;10.23;2.13;;;10.80;99.90;;;;;;4974721;28;20083;-73
2023/12/28 05:25:19;;;;;;;17.70;1.95;;;10.70;99.90;;;;;;4974498;28;20039;-77
2023/12/28 05:27:44;;;;;;;13.45;2.92;;;10.70;99.90;;;;;;4974645;28;20038;-79
2023/12/28 05:30:10;;;;;;;7.13;1.95;;;10.70;99.90;;;;;;4974601;28;20046;-76
2023/12/28 05:32:36;;;;;;;8.02;2.20;;;10.80;99.90;;;;;;4975685;28;20436;-76
2023/12/28 05:35:03;;;;;;;8.63;2.10;;;10.80;99.90;;;;;;4974496;28;20047;-75
2023/12/28 05:37:28;;;;;;;7.47;2.20;;;10.80;99.90;;;;;;4975898;28;20394;-74
2023/12/28 05:39:54;;;;;;;14.63;2.47;;;10.80;99.90;;;;;;4974137;28;20047;-75
2023/12/28 05:42:20;;;;;;;15.05;2.83;;;10.80;99.90;;;;;;4975774;28;20042;-76
2023/12/28 05:44:45;;;;;;;8.23;2.30;;;10.80;99.90;;;;;;4974598;28;20055;-75
2023/12/28 05:47:11;;;;;;;12.80;2.35;;;10.80;99.90;;;;;;4958022;28;20047;-73
2023/12/28 05:49:37;;;;;;;11.93;2.03;;;10.80;99.90;;;;;;4975938;28;20035;-72
2023/12/28 05:52:04;;;;;;;11.27;2.20;;;10.80;99.90;;;;;;4975306;28;20039;-74
2023/12/28 05:54:30;;;;;;;13.02;2.55;;;10.70;99.90;;;;;;4958371;28;20382;-77
2023/12/28 05:56:55;;;;;;;10.10;2.28;;;10.70;99.90;;;;;;4975512;28;20046;-73
2023/12/28 05:59:22;;;;;;;9.80;2.00;;;10.70;99.90;;;;;;4974157;28;20050;-76
2023/12/28 06:01:48;;;;;;;10.35;2.42;;;10.70;99.90;;;;;;4975192;28;20093;-77
2023/12/28 06:04:13;;;;;;;19.95;2.35;;;10.80;99.90;;;;;;4975305;28;20035;-74
2023/12/28 06:06:39;;;;;;;15.18;2.65;;;10.80;99.90;;;;;;4973961;28;20486;-76
2023/12/28 06:09:06;;;;;;;9.95;2.42;;;10.80;99.90;;;;;;4975474;28;20097;-75
2023/12/28 06:11:31;;;;;;;13.07;2.17;;;10.80;99.90;;;;;;4975013;28;20050;-73
2023/12/28 06:13:57;;;;;;;12.95;2.72;;;10.80;99.90;;;;;;4957840;28;20042;-77
2023/12/28 06:16:23;;;;;;;22.67;2.42;;;10.80;99.90;;;;;;4975175;28;20070;-78
2023/12/28 06:18:48;;;;;;;15.35;2.38;;;10.80;99.90;;;;;;4975321;28;20046;-77
2023/12/28 06:21:14;;;;;;;8.90;2.05;;;10.80;99.90;;;;;;4975277;28;20042;-76
2023/12/28 06:23:40;;;;;;;13.60;2.33;;;10.80;99.90;;;;;;4975257;28;20545;-75
2023/12/28 06:26:09;;;;;;;9.10;1.98;;;10.80;99.90;;;;;;4974140;28;20046;-76
2023/12/28 06:28:34;;;;;;;11.70;1.67;;;10.80;99.90;;;;;;4973664;28;20047;-76
2023/12/28 06:31:00;;;;;;;13.35;2.50;;;10.90;99.90;;;;;;4974556;28;20039;-75
2023/12/28 06:33:29;;;;;;;12.52;2.80;;;10.90;99.90;;;;;;4974696;28;20035;-74
2023/12/28 06:35:55;;;;;;;13.32;2.65;;;10.90;99.90;;;;;;4973778;28;20043;-78
2023/12/28 06:38:20;;;;;;;11.80;2.58;;;10.90;99.90;;;;;;4973487;28;20053;-77
2023/12/28 06:40:46;;;;;;;13.45;2.50;;;11.00;99.90;;;;;;4957424;28;20047;-73
2023/12/28 06:43:12;;;;;;;13.68;2.22;;;11.00;99.90;;;;;;4975015;28;20053;-75
2023/12/28 06:45:38;;;;;;;10.10;1.90;;;11.00;99.90;;;;;;4974575;28;20049;-75
2023/12/28 06:48:04;;;;;;;16.98;2.25;;;11.00;99.90;;;;;;4973434;28;20096;-74
2023/12/28 06:50:30;;;;;;;9.90;1.83;;;11.00;99.90;;;;;;4974824;28;20038;-74
2023/12/28 06:52:55;;;;;;;10.95;1.92;;;11.00;99.90;;;;;;4973370;28;20042;-75
2023/12/28 06:55:21;;;;;;;11.18;2.30;;;11.00;99.90;;;;;;4975156;28;20047;-73
2023/12/28 06:57:47;;;;;;;18.23;3.25;;;10.90;99.90;;;;;;4974753;28;20210;-74
2023/12/28 07:00:13;;;;;;;13.95;2.53;;;10.90;99.90;;;;;;4974665;28;20121;-75
2023/12/28 07:02:38;;;;;;;15.90;2.08;;;11.00;99.90;;;;;;4957333;28;20074;-77
2023/12/28 07:05:05;;;;;;;11.20;2.75;;;11.00;99.90;;;;;;4974838;28;20074;-72
2023/12/28 07:07:30;;;;;;;12.50;1.80;;;11.00;99.90;;;;;;4972960;28;20093;-73
2023/12/28 07:09:56;;;;;;;16.88;2.35;;;11.00;99.90;;;;;;4974696;28;20082;-74
2023/12/28 07:12:22;;;;;;;16.35;2.65;;;11.00;99.90;;;;;;4973046;28;20113;-75
2023/12/28 07:14:47;;;;;;;18.85;2.53;;;11.00;99.90;;;;;;4974632;28;20047;-76
2023/12/28 07:17:17;;;;;;;15.50;2.70;;;11.00;99.90;;;;;;4974698;28;20101;-76
2023/12/28 07:19:43;;;;;;;15.38;2.35;;;11.00;99.90;;;;;;4973571;28;20054;-78
2023/12/28 07:22:08;;;;;;;13.63;2.30;;;10.90;99.90;;;;;;4974389;28;20114;-75
2023/12/28 07:24:34;;;;;;;12.80;2.45;;;11.00;99.90;;;;;;4974710;28;20122;-75
2023/12/28 07:27:00;;;;;;;24.98;2.60;;;11.00;99.90;;;;;;4974055;28;20074;-76
2023/12/28 07:29:25;;;;;;;15.93;2.70;;;11.00;99.90;;;;;;4974574;28;20038;-75
2023/12/28 07:31:51;;;;;;;11.50;2.88;;;10.90;99.90;;;;;;4974669;28;20089;-78
2023/12/28 07:34:17;;;;;;;13.82;2.00;;;10.90;99.90;;;;;;4974397;28;20089;-76
2023/12/28 07:36:43;;;;;;;14.82;2.83;;;10.90;99.90;;;;;;4973007;28;20462;-75
2023/12/28 07:39:10;;;;;;;13.07;2.28;;;11.00;99.90;;;;;;4973316;28;20066;-73
2023/12/28 07:41:36;;;;;;;19.20;3.15;;;11.00;99.90;;;;;;4974144;28;20039;-73
2023/12/28 07:44:02;;;;;;;13.05;2.20;;;10.90;99.90;;;;;;4975277;28;20038;-74
2023/12/28 07:46:27;;;;;;;19.73;3.45;;;10.90;99.90;;;;;;4977995;28;20398;-75
2023/12/28 07:48:53;;;;;;;17.63;3.22;;;10.90;99.90;;;;;;4978283;28;20057;-76
2023/12/28 07:51:19;;;;;;;14.00;3.05;;;10.90;99.90;;;;;;4977643;28;20133;-75
2023/12/28 07:53:44;;;;;;;16.48;3.28;;;10.90;99.90;;;;;;4978045;28;20081;-77
2023/12/28 07:56:10;;;;;;;20.67;3.03;;;10.90;99.90;;;;;;4976675;28;20490;-76
2023/12/28 07:58:37;;;;;;;21.70;3.75;;;11.00;99.90;;;;;;4976225;28;20449;-76
2023/12/28 08:01:03;;;;;;;10.55;1.88;;;11.00;99.90;;;;;;4959588;28;20501;-73
2023/12/28 08:03:29;;;;;;;32.28;4.32;;;10.90;99.90;;;;;;4977447;28;20474;-72
2023/12/28 08:05:55;;;;;;;21.33;2.90;;;10.90;99.90;;;;;;4977685;28;20074;-75
2023/12/28 08:08:20;;;;;;;15.57;2.33;;;10.90;99.90;;;;;;4976473;28;20050;-73
2023/12/28 08:10:46;;;;;;;19.23;2.55;;;11.00;99.90;;;;;;4977227;28;20486;-76
2023/12/28 08:13:11;;;;;;;17.85;2.90;;;11.00;99.90;;;;;;4975909;28;20042;-76
2023/12/28 08:15:37;;;;;;;15.45;3.13;;;11.00;99.90;;;;;;4976073;28;20038;-74
2023/12/28 08:18:04;;;;;;;22.65;3.63;;;11.00;99.90;;;;;;4977617;28;20043;-79
2023/12/28 08:20:29;;;;;;;16.30;3.67;;;11.00;99.90;;;;;;4977509;28;20047;-76
2023/12/28 08:22:55;;;;;;;16.85;3.88;;;10.90;99.90;;;;;;4977344;28;20492;-76
2023/12/28 08:25:22;;;;;;;23.38;3.83;;;10.90;99.90;;;;;;4977423;28;20050;-76
2023/12/28 08:27:48;;;;;;;14.85;3.00;;;10.90;99.90;;;;;;4977818;28;20042;-72
2023/12/28 08:30:14;;;;;;;16.15;2.63;;;11.00;99.90;;;;;;4975733;28;20209;-72
2023/12/28 08:32:39;;;;;;;18.27;3.70;;;11.00;99.90;;;;;;4975637;28;20173;-75
2023/12/28 08:35:06;;;;;;;23.85;3.42;;;11.00;99.90;;;;;;4976208;28;20038;-74
2023/12/28 08:37:32;;;;;;;21.92;3.03;;;11.00;99.90;;;;;;4975448;28;20062;-75
2023/12/28 08:39:58;;;;;;;16.50;2.53;;;11.00;99.90;;;;;;4976816;28;20427;-76
2023/12/28 08:42:24;;;;;;;23.27;3.75;;;11.00;99.90;;;;;;4976761;28;20050;-76
2023/12/28 08:44:50;;;;;;;26.63;4.28;;;11.10;99.90;;;;;;4976735;28;20129;-74
2023/12/28 08:47:16;;;;;;;18.85;3.22;;;11.10;99.90;;;;;;4976577;28;20479;-73
2023/12/28 08:49:41;;;;;;;28.38;4.32;;;11.10;99.90;;;;;;4975165;28;20051;-73
2023/12/28 08:52:07;;;;;;;19.30;3.50;;;11.10;99.90;;;;;;4975401;28;20104;-75
2023/12/28 08:54:32;;;;;;;24.48;3.55;;;11.10;99.90;;;;;;4974014;28;20121;-75
2023/12/28 08:56:58;;;;;;;17.10;3.20;;;11.10;99.90;;;;;;4976582;28;20370;-77
2023/12/28 08:59:24;;;;;;;18.35;3.15;;;11.10;99.90;;;;;;4976426;28;20088;-75
2023/12/28 09:01:53;;;;;;;15.30;2.42;;;11.10;99.90;;;;;;4974525;28;20410;-74
2023/12/28 09:04:19;;;;;;;19.35;2.83;;;11.10;99.90;;;;;;4957709;28;20051;-73
2023/12/28 09:06:44;;;;;;;20.05;2.55;;;11.10;99.90;;;;;;4974899;28;20049;-72
2023/12/28 09:09:10;;;;;;;13.82;3.22;;;11.00;99.90;;;;;;4958689;28;20382;-74
2023/12/28 09:11:36;;;;;;;25.20;3.58;;;11.00;99.90;;;;;;4975791;28;20043;-75
2023/12/28 09:14:01;;;;;;;19.85;2.88;;;11.00;99.90;;;;;;4976537;28;20089;-76
2023/12/28 09:16:28;;;;;;;20.38;2.70;;;11.00;99.90;;;;;;4974772;28;20109;-73
2023/12/28 09:18:54;;;;;;;18.27;2.65;;;11.00;99.90;;;;;;4974673;28;20513;-73
2023/12/28 09:21:20;;;;;;;26.33;3.80;;;11.10;99.90;;;;;;4974630;28;20054;-72
2023/12/28 09:23:46;;;;;;;17.08;2.72;;;11.10;99.90;;;;;;4976356;28;20070;-75
2023/12/28 09:26:12;;;;;;;21.00;2.85;;;11.10;99.90;;;;;;4976350;28;20467;-74
2023/12/28 09:28:37;;;;;;;20.40;3.00;;;11.10;99.90;;;;;;4974564;28;20113;-73
2023/12/28 09:31:04;;;;;;;13.82;2.00;;;11.20;99.90;;;;;;4958615;28;20038;-76
2023/12/28 09:33:29;;;;;;;13.10;1.70;;;11.20;99.90;;;;;;4974737;28;20047;-72
2023/12/28 09:35:55;;;;;;;22.92;3.08;;;11.20;99.90;;;;;;4975910;28;20053;-76
2023/12/28 09:38:22;;;;;;;20.23;2.63;;;11.20;99.90;;;;;;4975835;28;20395;-74
2023/12/28 09:40:51;;;;;;;15.15;2.85;;;11.10;99.90;;;;;;4974155;28;20093;-76
2023/12/28 09:43:24;;;;;;;18.35;3.63;;;11.10;99.90;;;;;;4975371;28;20049;-77
2023/12/28 09:45:51;;;;;;;15.40;2.78;;;11.20;99.90;;;;;;4975113;28;20043;-77
2023/12/28 09:48:18;;;;;;;18.63;3.15;;;11.20;99.90;;;;;;4975213;28;20042;-72
2023/12/28 09:50:54;;;;;;;18.45;3.08;;;11.20;99.90;;;;;;4975521;28;20101;-74
2023/12/28 09:53:23;;;;;;;20.13;2.90;;;11.20;99.90;;;;;;4975561;28;20165;-74
2023/12/28 09:55:51;;;;;;;24.52;3.63;;;11.30;99.90;;;;;;4973967;28;20034;-73
2023/12/28 09:58:19;;;;;;;19.45;3.00;;;11.20;99.90;;;;;;4973961;28;20046;-73
2023/12/28 10:00:45;;;;;;;19.23;3.08;;;11.30;99.90;;;;;;4973889;28;20364;-72
2023/12/28 10:03:13;;;;;;;28.52;4.32;;;11.30;99.90;;;;;;4974015;28;20126;-73
2023/12/28 10:05:40;;;;;;;19.77;4.03;;;11.30;99.90;;;;;;4974866;28;20114;-75
2023/12/28 10:08:06;;;;;;;13.15;2.33;;;11.30;99.90;;;;;;4973880;28;20169;-75
2023/12/28 10:10:32;;;;;;;19.20;3.53;;;11.30;99.90;;;;;;4973812;28;20121;-75
2023/12/28 10:12:58;;;;;;;14.23;2.58;;;11.30;99.90;;;;;;4974980;28;20074;-74
2023/12/28 10:15:25;;;;;;;16.15;2.97;;;11.40;99.90;;;;;;4973652;28;20106;-71
2023/12/28 10:17:52;;;;;;;4.93;1.10;;;11.30;99.90;;;;;;4975141;28;20046;-76
2023/12/28 10:20:18;;;;;;;21.48;3.70;;;11.30;99.90;;;;;;4973481;28;20054;-76
2023/12/28 10:22:44;;;;;;;13.98;3.10;;;11.30;99.90;;;;;;4974946;28;20046;-75
2023/12/28 10:25:11;;;;;;;26.23;3.85;;;11.30;99.90;;;;;;4973532;28;20054;-73
2023/12/28 10:27:43;;;;;;;15.60;3.55;;;11.30;99.90;;;;;;4974619;28;20097;-75
2023/12/28 10:30:10;;;;;;;26.73;4.97;;;11.40;99.90;;;;;;4974970;28;20367;-73
2023/12/28 10:32:39;;;;;;;15.10;2.80;;;11.40;99.90;;;;;;4974540;28;20046;-75
2023/12/28 10:35:05;;;;;;;22.85;3.70;;;11.50;99.90;;;;;;4973830;28;20296;-73
2023/12/28 10:37:33;;;;;;;17.63;2.80;;;11.50;99.90;;;;;;4974435;28;20070;-74
2023/12/28 10:40:00;;;;;;;22.58;3.10;;;11.40;99.90;;;;;;4973138;28;20375;-75
2023/12/28 10:42:31;;;;;;;15.30;3.22;;;11.50;99.90;;;;;;4973114;28;20505;-74
2023/12/28 10:45:05;;;;;;;19.00;3.53;;;11.50;99.90;;;;;;4957163;28;20053;-73
2023/12/28 10:47:37;;;;;;;15.88;2.92;;;11.40;99.90;;;;;;4973242;28;20125;-72
2023/12/28 10:50:05;;;;;;;20.35;3.58;;;11.40;99.90;;;;;;4974207;28;20345;-76
2023/12/28 10:52:33;;;;;;;16.98;3.33;;;11.40;99.90;;;;;;4974218;28;20039;-75
2023/12/28 10:55:24;;;;;;;19.00;3.50;;;11.50;99.90;;;;;;4974559;28;20042;-75
2023/12/28 10:58:03;;;;;;;24.05;3.67;;;11.50;99.90;;;;;;4973007;28;20050;-72
2023/12/28 11:00:33;;;;;;;13.80;2.53;;;11.40;99.90;;;;;;4974240;28;20503;-76
2023/12/28 11:03:05;;;;;;;26.23;3.65;;;11.40;99.90;;;;;;4973391;28;20483;-74
2023/12/28 11:05:33;;;;;;;21.52;3.97;;;11.40;99.90;;;;;;4974675;28;20074;-75
2023/12/28 11:08:00;;;;;;;19.80;4.05;;;11.50;99.90;;;;;;4972966;28;20046;-74
2023/12/28 11:10:28;;;;;;;15.63;2.40;;;11.40;99.90;;;;;;4974238;28;20542;-72
2023/12/28 11:12:56;;;;;;;25.42;3.65;;;11.40;99.90;;;;;;4974242;28;20097;-75
2023/12/28 11:15:23;;;;;;;12.88;2.35;;;11.40;99.90;;;;;;4972703;28;20043;-73
2023/12/28 11:17:49;;;;;;;18.13;3.25;;;11.40;99.90;;;;;;4974743;28;20086;-74
2023/12/28 11:20:15;;;;;;;19.80;3.65;;;11.40;99.90;;;;;;4979017;28;20483;-74
2023/12/28 11:22:42;;;;;;;20.75;4.00;;;11.40;99.90;;;;;;4978858;28;20038;-72
2023/12/28 11:25:15;;;;;;;22.88;3.25;;;11.40;99.90;;;;;;4978010;28;20463;-75
2023/12/28 11:27:41;;;;;;;19.77;3.58;;;11.40;99.90;;;;;;4976802;28;20435;-71
2023/12/28 11:30:10;;;;;;;21.27;3.40;;;11.40;99.90;;;;;;4978234;28;20404;-73
2023/12/28 11:32:36;;;;;;;20.67;3.60;;;11.50;99.90;;;;;;4977625;28;20046;-73
2023/12/28 11:35:06;;;;;;;33.47;3.65;;;11.50;99.90;;;;;;4976528;28;20474;-76
2023/12/28 11:37:33;;;;;;;16.25;2.80;;;11.50;99.90;;;;;;4976813;28;20054;-76
2023/12/28 11:40:10;;;;;;;19.33;3.47;;;11.50;99.90;;;;;;4977990;28;20043;-75
2023/12/28 11:42:36;;;;;;;38.78;5.40;;;11.50;99.90;;;;;;4977993;28;20117;-74
2023/12/28 11:45:02;;;;;;;16.42;3.30;;;11.50;99.90;;;;;;4978205;28;20123;-76
2023/12/28 11:47:27;;;;;;;19.98;3.35;;;11.60;99.90;;;;;;4978005;28;20478;-75
2023/12/28 11:49:54;;;;;;;22.75;3.80;;;11.60;99.90;;;;;;4976179;28;20042;-74
2023/12/28 11:52:32;;;;;;;23.60;3.58;;;11.60;99.90;;;;;;4977470;28;20085;-77
2023/12/28 11:55:02;;;;;;;18.58;3.05;;;11.60;99.90;;;;;;4976220;28;20043;-73
2023/12/28 11:57:27;;;;;;;21.45;3.20;;;11.60;99.90;;;;;;4977673;28;20047;-75
2023/12/28 11:59:56;;;;;;;18.83;3.55;;;11.60;99.90;;;;;;4959943;28;20050;-77
2023/12/28 12:02:22;;;;;;;19.77;3.33;;;11.60;99.90;;;;;;4977277;28;20038;-74
2023/12/28 12:04:48;;;;;;;17.92;2.95;;;11.60;99.90;;;;;;4977279;28;20456;-76
2023/12/28 12:07:13;;;;;;;18.58;2.50;;;11.60;99.90;;;;;;4976920;28;20097;-75
2023/12/28 12:09:39;;;;;;;16.00;2.00;;;11.50;99.90;;;;;;4977489;28;20035;-75
2023/12/28 12:12:06;;;;;;;26.45;4.25;;;11.50;99.90;;;;;;4977142;28;20546;-75
2023/12/28 12:14:33;;;;;;;15.80;2.40;;;11.50;99.90;;;;;;4977644;28;20098;-76
2023/12/28 12:17:00;;;;;;;17.95;2.80;;;11.50;99.90;;;;;;4975878;28;20047;-73
2023/12/28 12:19:26;;;;;;;15.13;2.90;;;11.40;99.90;;;;;;4977274;28;20049;-76
2023/12/28 12:21:52;;;;;;;19.52;2.63;;;11.40;99.90;;;;;;4975766;28;20051;-73
2023/12/28 12:24:18;;;;;;;21.67;4.45;;;11.40;99.90;;;;;;4975521;28;20049;-76
2023/12/28 12:26:46;;;;;;;18.58;2.38;;;11.40;99.90;;;;;;4977082;28;20069;-75
2023/12/28 12:29:12;;;;;;;27.50;4.22;;;11.40;99.90;;;;;;4976834;28;20450;-75
2023/12/28 12:31:41;;;;;;;19.58;3.40;;;11.40;99.90;;;;;;4977091;28;20113;-75
2023/12/28 12:34:07;;;;;;;13.63;2.83;;;11.40;99.90;;;;;;4975556;28;20126;-77
2023/12/28 12:36:34;;;;;;;13.75;2.38;;;11.40;99.90;;;;;;4977284;28;20057;-76
2023/12/28 12:38:59;;;;;;;16.20;2.53;;;11.50;99.90;;;;;;4959392;28;20074;-73
2023/12/28 12:41:26;;;;;;;17.35;3.42;;;11.50;99.90;;;;;;4975022;28;20050;-75
2023/12/28 12:43:52;;;;;;;19.75;3.88;;;11.50;99.90;;;;;;4975343;28;20101;-73
2023/12/28 12:46:17;;;;;;;22.08;3.90;;;11.50;99.90;;;;;;4976508;28;20042;-73
2023/12/28 12:48:55;;;;;;;21.85;3.38;;;11.50;99.90;;;;;;4977019;28;20042;-74
2023/12/28 12:51:21;;;;;;;22.35;3.08;;;11.40;99.90;;;;;;4976601;28;20455;-72
2023/12/28 12:53:46;;;;;;;20.35;3.20;;;11.40;99.90;;;;;;4975197;28;20084;-75
2023/12/28 12:56:12;;;;;;;16.20;3.05;;;11.40;99.90;;;;;;4976501;28;20043;-72
2023/12/28 12:58:38;;;;;;;14.10;2.97;;;11.40;99.90;;;;;;4974944;28;20046;-72
2023/12/28 13:01:03;;;;;;;20.30;3.63;;;11.40;99.90;;;;;;4975073;28;20387;-76
2023/12/28 13:03:29;;;;;;;15.93;3.08;;;11.40;99.90;;;;;;4975586;28;20521;-72
2023/12/28 13:05:56;;;;;;;16.30;3.03;;;11.40;99.90;;;;;;4975060;28;20055;-75
2023/12/28 13:08:22;;;;;;;28.52;4.47;;;11.40;99.90;;;;;;4975455;28;20046;-77
2023/12/28 13:10:49;;;;;;;12.30;2.78;;;11.40;99.90;;;;;;4976255;28;20034;-73
2023/12/28 13:13:15;;;;;;;23.27;3.58;;;11.30;99.90;;;;;;4976429;28;20386;-76
2023/12/28 13:15:41;;;;;;;16.02;2.90;;;11.40;99.90;;;;;;4976502;28;20031;-76
2023/12/28 13:18:06;;;;;;;12.23;2.17;;;11.30;99.90;;;;;;4975905;28;20039;-75
2023/12/28 13:20:32;;;;;;;19.42;3.53;;;11.40;99.90;;;;;;4975977;28;20085;-74
2023/12/28 13:22:57;;;;;;;18.60;3.15;;;11.40;99.90;;;;;;4974801;28;20049;-76
2023/12/28 13:25:23;;;;;;;23.27;3.60;;;11.40;99.90;;;;;;4975036;28;20038;-74
2023/12/28 13:27:49;;;;;;;19.65;4.03;;;11.40;99.90;;;;;;4974684;28;20558;-74
2023/12/28 13:30:14;;;;;;;18.88;3.47;;;11.40;99.90;;;;;;4975849;28;20042;-72
2023/12/28 13:32:40;;;;;;;23.25;3.55;;;11.40;99.90;;;;;;4974464;28;20043;-72
2023/12/28 13:35:06;;;;;;;20.35;2.97;;;11.40;99.90;;;;;;4974355;28;20042;-73
2023/12/28 13:37:32;;;;;;;22.55;3.58;;;11.30;99.90;;;;;;4975695;28;20408;-73
2023/12/28 13:39:57;;;;;;;17.25;3.10;;;11.30;99.90;;;;;;4975479;28;20081;-76
2023/12/28 13:42:23;;;;;;;15.98;3.63;;;11.30;99.90;;;;;;4973715;28;20130;-72
2023/12/28 13:44:49;;;;;;;21.65;3.92;;;11.30;99.90;;;;;;4975522;28;20121;-73
2023/12/28 13:47:14;;;;;;;23.38;3.70;;;11.30;99.90;;;;;;4974095;28;20093;-75
2023/12/28 13:49:40;;;;;;;14.95;2.80;;;11.30;99.90;;;;;;4975673;28;20039;-74
2023/12/28 13:52:05;;;;;;;15.07;3.17;;;11.30;99.90;;;;;;4975196;28;20061;-74
2023/12/28 13:54:31;;;;;;;18.73;3.05;;;11.30;99.90;;;;;;4975574;28;20034;-74
2023/12/28 13:56:58;;;;;;;21.13;3.97;;;11.30;99.90;;;;;;4975528;28;20414;-73
2023/12/28 13:59:24;;;;;;;18.08;3.70;;;11.30;99.90;;;;;;4974007;28;20070;-76
2023/12/28 14:01:50;;;;;;;18.52;3.67;;;11.30;99.90;;;;;;4974950;28;20154;-75
2023/12/28 14:04:16;;;;;;;21.77;4.90;;;11.30;99.90;;;;;;4975496;28;20046;-75
2023/12/28 14:06:41;;;;;;;15.68;2.40;;;11.20;99.90;;;;;;4973925;28;20047;-72
2023/12/28 14:09:08;;;;;;;26.00;4.47;;;11.30;99.90;;;;;;4957674;28;20045;-74
2023/12/28 14:11:33;;;;;;;22.23;3.42;;;11.20;99.90;;;;;;4973699;28;20046;-75
2023/12/28 14:13:59;;;;;;;17.73;2.88;;;11.20;99.90;;;;;;4973632;28;20047;-75
2023/12/28 14:16:25;;;;;;;20.52;3.08;;;11.20;99.90;;;;;;4975274;28;20043;-75
2023/12/28 14:18:52;;;;;;;15.95;3.20;;;11.20;99.90;;;;;;4973618;28;20046;-74
2023/12/28 14:21:18;;;;;;;17.52;3.42;;;11.20;99.90;;;;;;4975005;28;20368;-74
2023/12/28 14:23:44;;;;;;;18.98;3.92;;;11.10;99.90;;;;;;4973825;28;20090;-74
2023/12/28 14:26:14;;;;;;;12.90;2.38;;;11.00;99.90;;;;;;4973664;28;20148;-76
2023/12/28 14:28:41;;;;;;;19.05;3.15;;;11.00;99.90;;;;;;4974755;28;20439;-75
2023/12/28 14:31:11;;;;;;;32.05;4.63;;;10.90;99.90;;;;;;4973771;28;20130;-74
2023/12/28 14:33:41;;;;;;;15.93;3.15;;;10.80;99.90;;;;;;4975075;28;20488;-74
2023/12/28 14:36:33;;;;;;;11.05;3.08;;;10.80;99.90;;;;;;4973520;28;20055;-76
2023/12/28 14:39:07;;;;;;;18.85;3.50;;;10.80;99.90;;;;;;4973497;28;20043;-74
2023/12/28 14:41:37;;;;;;;22.10;2.90;;;10.80;99.90;;;;;;4973573;28;20121;-74
2023/12/28 14:44:03;;;;;;;19.40;3.22;;;10.80;99.90;;;;;;4973463;28;20113;-75
2023/12/28 14:46:29;;;;;;;16.42;2.85;;;10.80;99.90;;;;;;4974702;28;20089;-74
2023/12/28 14:48:55;;;;;;;18.77;3.13;;;10.80;99.90;;;;;;4973299;28;20395;-76
2023/12/28 14:51:21;;;;;;;22.88;3.70;;;10.90;99.90;;;;;;4973269;28;20073;-76
2023/12/28 14:53:47;;;;;;;19.30;3.33;;;10.90;99.90;;;;;;4973362;28;20344;-75
2023/12/28 14:56:13;;;;;;;15.40;2.50;;;10.90;99.90;;;;;;4974472;28;20117;-75
2023/12/28 14:58:44;;;;;;;19.95;2.85;;;10.90;99.90;;;;;;4973103;28;20529;-72
2023/12/28 15:01:11;;;;;;;19.60;3.88;;;10.90;99.90;;;;;;4973041;28;20054;-72
2023/12/28 15:03:38;;;;;;;20.90;3.63;;;10.90;99.90;;;;;;4974350;28;20039;-71
2023/12/28 15:06:04;;;;;;;14.63;2.70;;;10.90;99.90;;;;;;4974442;28;20047;-75
2023/12/28 15:08:30;;;;;;;22.77;3.45;;;10.80;99.90;;;;;;4973201;28;20098;-76
2023/12/28 15:10:56;;;;;;;17.38;2.63;;;10.90;99.90;;;;;;4974092;28;20428;-77
2023/12/28 15:13:22;;;;;;;16.30;3.30;;;10.90;99.90;;;;;;4974349;28;20430;-76
2023/12/28 15:15:50;;;;;;;15.77;3.05;;;10.90;99.90;;;;;;4973050;28;20038;-73
2023/12/28 15:18:17;;;;;;;14.05;2.75;;;10.90;99.90;;;;;;4973389;28;20042;-72
2023/12/28 15:20:47;;;;;;;24.75;4.40;;;10.90;99.90;;;;;;4956658;28;20039;-73
2023/12/28 15:23:13;;;;;;;13.25;2.67;;;11.00;99.90;;;;;;4973159;28;20590;-73
2023/12/28 15:25:43;;;;;;;18.35;3.72;;;11.00;99.90;;;;;;4972845;28;20049;-74
2023/12/28 15:28:08;;;;;;;16.95;2.92;;;11.00;99.90;;;;;;4973078;28;20101;-76
2023/12/28 15:30:34;;;;;;;18.13;3.67;;;11.00;99.90;;;;;;4972689;28;20422;-76
2023/12/28 15:33:00;;;;;;;11.27;2.97;;;10.90;99.90;;;;;;4972789;28;20067;-76
2023/12/28 15:35:26;;;;;;;15.43;3.85;;;10.90;99.90;;;;;;4972816;28;20077;-75
2023/12/28 15:37:52;;;;;;;16.50;2.88;;;10.90;99.90;;;;;;4974073;28;20070;-73
2023/12/28 15:40:17;;;;;;;20.73;2.83;;;10.90;99.90;;;;;;4974892;28;20078;-73
2023/12/28 15:42:43;;;;;;;15.75;2.90;;;10.80;99.90;;;;;;4973122;28;20042;-73
2023/12/28 15:45:09;;;;;;;20.17;3.22;;;10.80;99.90;;;;;;4974191;28;20519;-74
2023/12/28 15:47:34;;;;;;;14.93;2.40;;;10.80;99.90;;;;;;4972449;28;20395;-74
2023/12/28 15:50:01;;;;;;;12.68;2.35;;;10.80;99.90;;;;;;4972537;28;20035;-74
2023/12/28 15:52:27;;;;;;;17.30;3.03;;;10.80;99.90;;;;;;4972826;28;20097;-73
2023/12/28 15:54:53;;;;;;;18.20;2.90;;;10.70;99.90;;;;;;4973841;28;20075;-75
2023/12/28 15:57:19;;;;;;;17.25;2.75;;;10.70;99.90;;;;;;4972586;28;20042;-75
2023/12/28 15:59:44;;;;;;;15.45;2.70;;;10.70;99.90;;;;;;4973832;28;20046;-72
2023/12/28 16:02:10;;;;;;;13.43;2.85;;;10.70;99.90;;;;;;4972362;28;20053;-72
2023/12/28 16:04:37;;;;;;;18.10;2.97;;;10.80;99.90;;;;;;4975438;28;20142;-74
2023/12/28 16:07:03;;;;;;;16.15;3.60;;;10.80;99.90;;;;;;4977246;28;20403;-74
2023/12/28 16:09:29;;;;;;;13.27;2.13;;;10.70;99.90;;;;;;4976465;28;20035;-73
2023/12/28 16:11:56;;;;;;;14.35;3.63;;;10.70;99.90;;;;;;4977296;28;20050;-73
2023/12/28 16:14:22;;;;;;;13.20;2.50;;;10.80;99.90;;;;;;4977134;28;20070;-75
2023/12/28 16:16:48;;;;;;;36.53;15.55;;;10.80;99.90;;;;;;4977344;28;20050;-75
2023/12/28 16:19:14;;;;;;;15.73;3.88;;;10.80;99.90;;;;;;4977188;28;20051;-75
2023/12/28 16:21:40;;;;;;;15.95;3.35;;;10.80;99.90;;;;;;4976209;28;20081;-74
2023/12/28 16:24:07;;;;;;;20.65;2.72;;;10.80;99.90;;;;;;4977620;28;20467;-75
2023/12/28 16:26:35;;;;;;;20.08;2.83;;;10.80;99.90;;;;;;4975629;28;20058;-73
2023/12/28 16:29:02;;;;;;;15.48;2.67;;;10.80;99.90;;;;;;4977512;28;20098;-74
2023/12/28 16:31:28;;;;;;;17.92;3.92;;;10.80;99.90;;;;;;4977437;28;20038;-72
2023/12/28 16:33:54;;;;;;;15.05;2.83;;;10.80;99.90;;;;;;4977437;28;20117;-72
2023/12/28 16:36:19;;;;;;;12.80;2.88;;;10.80;99.90;;;;;;4975516;28;20553;-75